La Grange, Wyoming
Current Conditions -  °F | °C
As of 10:53 AM on Tuesday 21 Oct 2014 (Local Time) from KTOR Reporting Station
Broken Clouds Broken Clouds  
Wind Chill: 58°   Ceiling: 11000
Heat Index: 58°   Visibility: 10mi
Dew Point: 40°   Wind: 3mph
Humidity: 51%   Direction: 150°SSE
Pressure: 29.94"   Gusts: NA
Location:  41.64°N, 104.16°W
Report Text: KTOR 211653Z AUTO 15003KT 10SM BKN110 14/04 A2994 RMK AO2 SLP119 T01440044
Loading
Personal Weather Stations






























Interactive Weather Map
Tropical Storm Tracking
New forecast layout! Learn more

10-Day Weather Forecast

Advertisements
Track Severe Weather on mobile